METAR AND TAF INFORMATION
METAR FOR YPTN
ADDS - METARS form results

(1426 UTC 18 July 2018)
Data provider http://aviationweather.gov/adds/metars/
 
METAR text: YPTN 181400Z AUTO 13003KT 9999 // NCD 18/07 Q1014
Conditions at: YPTN (KATHERINE/TINDAL, AU) observed 1400 UTC 18 July 2018
Temperature: 18.0°C (64°F)
Dewpoint: 7.0°C (45°F) [RH = 49%]
Pressure (altimeter): 29.94 inches Hg (1014.0 mb)
Winds: from the SE (130 degrees) at 3 MPH (3 knots; 1.6 m/s)
Visibility: 6 or more miles (10+ km)
Ceiling: at least 12,000 feet AGL
Clouds: sky clear below 12,000 feet AGL
Weather: no significant weather observed at this time

METAR text: YPTN 181330Z AUTO 15005KT 9999 // NCD 19/07 Q1014
Conditions at: YPTN (KATHERINE/TINDAL, AU) observed 1330 UTC 18 July 2018
Temperature: 19.0°C (66°F)
Dewpoint: 7.0°C (45°F) [RH = 46%]
Pressure (altimeter): 29.94 inches Hg (1014.0 mb)
Winds: from the SSE (150 degrees) at 6 MPH (5 knots; 2.6 m/s)
Visibility: 6 or more miles (10+ km)
Ceiling: at least 12,000 feet AGL
Clouds: sky clear below 12,000 feet AGL
Weather: no significant weather observed at this time

Forecast for: YPTN (KATHERINE/TINDAL, AU)
Text: TAF YPTN 181110Z 1812/1912 11008KT CAVOK
Forecast period: 1200 UTC 18 July 2018 to 1200 UTC 19 July 2018
Forecast type: FROM: standard forecast or significant change
Winds: from the ESE (110 degrees) at 9 MPH (8 knots; 4.2 m/s)
Visibility: 6 or more miles (10+ km)
Clouds: not forecast
Weather: NSW  (no significant weather)

 AIRPORT MAP

 RUNWAY INFORMATION
Runway 14 Runway length 9003 ft Runway width 150 ft
Runway elevation 428 ft Runway displaced threshold 0 ft Runway heading 139
Runway 32 Runway length 9003 ft Runway width 150 ft
Runway elevation 443 ft Runway displaced threshold 0 ft Runway heading 319

 AIRPORT FREQUENCIES
Type APP Name APP Frequency 120.95 MHZ
Type ATIS Name ATIS Frequency 112.3 MHZ
Type CLD Name CLNC DEL Frequency 128.1 MHZ
Type CTAF Name CTAF Frequency 119.7 MHZ
Type FSS Name BRISBANE C Frequency 122.6 MHZ
Type GND Name GND Frequency 135.85 MHZ
Type TWR Name TWR Frequency 119.7 MHZ

 AIRPORT NEAR NAVIGATION AIDS
Type TACAN Name Tindal Frequency 112300 KHZ
Type VOR Name Tindal Frequency 112300 KHZ
Type NDB Name Tindal Frequency 356 KHZ